富士山静岡空港METAR/TAF(約33km東):

RJNS 211200Z 05009KT 010V080 9999 -RA FEW000 BKN025 BKN050 17/17 Q1013

TAF AMD RJNS 211546Z 2115/2218 06018KT 6000 -SHRA FEW008 BKN012 TEMPO 2115/2118 06020G30KT 3000 TSRA BR FEW005 BKN008 SCT012CB TEMPO 2118/2121 06020G30KT 3000 SHRA BR FEW005 BKN008 TEMPO 2121/2200 06020G30KT TEMPO 2200/2206 3000 SHRA BR FEW005 BKN008 BECMG 2206/2209 28006KT

ソアリング用気象予報:
BLIPMAP 中部地方
中部日本航空連盟および大野グライダークラブの支援により運営されているソアリング用気象予報BLIPMAPの中部地方版です。

風向風力(Windy.com):
スマホでの閲覧には、アプリ版Windy(Android/iOS)が適切です。

EGC Icon